Norwegian Dream — C6LG5 — position and weather

sailwx.info

Track history (hours):
 
Tides and Currents Weather Stations Pressure Air Temp Water Temp Dewpoint Dewpoint Depression Visibility Wind Speed Wind Dir Waves Ship Positions

Norwegian Dream

Operator: Norwegian Cruise Line

Last reported at 2017-Oct-18 11:20 UTC. Time now 2017-Oct-18 12:58 UTC.
Position N 01°16' E 103°49'.

Type: Ship. MMSI: 308272000.

Date/timePositionNaut miles runAvg speedWind from/ knotsBaromVisibWave heightAir tempDewpointWater temp
2017-Oct-18 11:20N 01°16' E 103°49'0 0.0
2017-Oct-18 10:02N 01°16' E 103°49'0 0.0
2017-Oct-18 09:48N 01°16' E 103°49'0 0.0
2017-Oct-18 05:23N 01°16' E 103°49'0 1.2
2017-Oct-18 04:59N 01°16' E 103°49'3 6.7
2017-Oct-18 04:30N 01°13' E 103°49'5 9.2
2017-Oct-18 03:59N 01°09' E 103°46'510.6
2017-Oct-18 03:30N 01°05' E 103°42'611.0
2017-Oct-18 02:59N 01°04' E 103°37'713.8
2017-Oct-18 02:31N 01°08' E 103°31'14316.8
2017-Oct-17 18:00N 02°24' E 101°30'181 7.8 220 / 101011.0 5.4 29.027.731.0
2017-Oct-16 18:42N 05°05' E 100°07'416.2
2017-Oct-16 18:28N 05°09' E 100°06'1123.3
2017-Oct-16 18:00N 05°18' E 100°00'548.5 090 / 41010.0 5.4 28.026.731.0
2017-Oct-16 17:54N 05°18' E 100°05'716.5
2017-Oct-16 17:30N 05°25' E 100°04'916.0
2017-Oct-16 16:55N 05°33' E 100°09'913.4
2017-Oct-16 16:15N 05°32' E 100°17'812.7
2017-Oct-16 15:39N 05°25' E 100°21'0 1.8
2017-Oct-16 15:30N 05°25' E 100°21'0 0.1
2017-Oct-16 15:00N 05°25' E 100°21'0 0.0
2017-Oct-16 14:29N 05°25' E 100°21'0 0.0
2017-Oct-16 13:29N 05°25' E 100°21'0 0.0
2017-Oct-16 13:00N 05°25' E 100°21'0 0.0
2017-Oct-16 12:29N 05°25' E 100°21'0 0.0
2017-Oct-16 11:59N 05°25' E 100°21'0 0.0
2017-Oct-16 10:53N 05°25' E 100°21'0 0.0
2017-Oct-16 10:30N 05°25' E 100°21'0 0.0
2017-Oct-16 09:59N 05°25' E 100°21'0 0.0
2017-Oct-16 09:24N 05°25' E 100°21'0 0.0
2017-Oct-16 08:42N 05°25' E 100°21'0 0.0
2017-Oct-16 08:30N 05°25' E 100°21'0 0.0
2017-Oct-16 07:53N 05°25' E 100°21'0 0.4
2017-Oct-16 07:30N 05°25' E 100°21'5 9.0
2017-Oct-16 07:00N 05°30' E 100°20'32414.2
2017-Oct-15 08:07N 01°12' E 103°36'314.6
2017-Oct-15 07:54N 01°12' E 103°40'512.3
2017-Oct-15 07:30N 01°15' E 103°44'5 8.8
2017-Oct-15 06:58N 01°16' E 103°48'1 1.4
2017-Oct-15 06:26N 01°16' E 103°49'0 0.0
2017-Oct-15 04:47N 01°16' E 103°49'0 0.0
2017-Oct-15 04:22N 01°16' E 103°49'0 0.0
2017-Oct-15 03:52N 01°16' E 103°49'0 0.0
2017-Oct-15 02:35N 01°16' E 103°49'0 0.0
2017-Oct-15 02:10N 01°16' E 103°49'0 0.0
2017-Oct-15 01:59N 01°16' E 103°49'0 0.0
2017-Oct-15 01:30N 01°16' E 103°49'1 2.3
2017-Oct-15 01:00N 01°15' E 103°48'4 7.4
2017-Oct-15 00:29N 01°12' E 103°50'510.5
2017-Oct-15 00:00N 01°09' E 103°46'611.3
2017-Oct-14 23:30N 01°04' E 103°42'4 8.1
2017-Oct-14 23:00N 01°03' E 103°38'5 9.0
2017-Oct-14 22:30N 01°05' E 103°34'4 8.4
2017-Oct-14 21:58N 01°07' E 103°31'5 8.1
2017-Oct-14 21:25N 01°10' E 103°27'30 8.9
2017-Oct-14 18:00N 01°24' E 103°00'13 0.6 350 / 101010.0 5.4 28.026.731.0
2017-Oct-13 18:00N 01°18' E 103°12'22 7.5 220 / 171010.0 5.4 27.025.731.0
2017-Oct-13 15:01N 01°12' E 103°33'2 9.2
2017-Oct-13 14:50N 01°11' E 103°35'3 8.4
2017-Oct-13 14:30N 01°11' E 103°38'4 8.0
2017-Oct-13 14:00N 01°10' E 103°42'4 7.2
2017-Oct-13 13:29N 01°09' E 103°45'3 5.9
2017-Oct-13 13:00N 01°10' E 103°48'3 6.0
2017-Oct-13 12:30N 01°13' E 103°48'3 5.7
2017-Oct-13 12:00N 01°16' E 103°49'4 7.3
2017-Oct-13 11:29N 01°12' E 103°49'4 3.8
2017-Oct-13 10:31N 01°16' E 103°49'0 0.0
2017-Oct-13 10:19N 01°16' E 103°49'0 0.0
2017-Oct-13 09:58N 01°16' E 103°49'0 0.0
2017-Oct-13 09:25N 01°16' E 103°49'0 0.0
2017-Oct-13 08:41N 01°16' E 103°49'0 0.0
2017-Oct-13 08:25N 01°16' E 103°49'0 0.0
2017-Oct-13 07:55N 01°16' E 103°49'0 0.0
2017-Oct-13 07:19N 01°16' E 103°49'0 0.0
2017-Oct-13 06:43N 01°16' E 103°49'0 0.0
2017-Oct-13 05:10N 01°16' E 103°49'0 0.0
2017-Oct-13 04:58N 01°16' E 103°49'0 0.0
2017-Oct-13 04:22N 01°16' E 103°49'0 0.0
2017-Oct-13 03:55N 01°16' E 103°49'0 0.0
2017-Oct-13 03:28N 01°16' E 103°49'1 1.2
2017-Oct-13 03:00N 01°16' E 103°49'4 7.1
2017-Oct-13 02:30N 01°12' E 103°49'510.7
2017-Oct-13 02:00N 01°08' E 103°46'510.6
2017-Oct-13 01:30N 01°04' E 103°42'3 6.7
2017-Oct-13 01:00N 01°03' E 103°39'4 8.5
2017-Oct-13 00:30N 01°05' E 103°35'4 8.6
2017-Oct-12 23:59N 01°07' E 103°31'5 8.7
2017-Oct-12 23:25N 01°09' E 103°27'4 8.6
2017-Oct-12 22:59N 01°11' E 103°24'44 8.7
2017-Oct-12 18:00N 01°36' E 102°48'53 2.2 130 / 171010.0 5.4 27.025.730.0
2017-Oct-11 17:21N 01°11' E 103°35'515.6
2017-Oct-11 17:01N 01°10' E 103°41'185 9.2
2017-Oct-10 21:00N 02°42' E 101°00'190 7.0 100 / 121008.0 5.4 28.026.731.0
2017-Oct-09 18:00N 05°42' E 100°00'22 8.7 270 / 141008.0 5.4 28.026.731.0
2017-Oct-09 15:30N 05°31' E 100°19'6 0.9
2017-Oct-09 08:18N 05°25' E 100°21'0 0.0
2017-Oct-09 07:54N 05°25' E 100°21'0 0.2
2017-Oct-09 07:27N 05°25' E 100°21'3 7.3
2017-Oct-09 07:00N 05°28' E 100°20'18214.0
2017-Oct-08 18:00N 02°36' E 101°18'   360 / 121010.010.8 28.026.731.0
Track history (hours):
 
Tides and Currents Weather Stations Pressure Air Temp Water Temp Dewpoint Dewpoint Depression Visibility Wind Speed Wind Dir Waves Ship Positions

Norwegian Dream

Operator: Norwegian Cruise Line

Last reported at 2017-Oct-18 11:20 UTC. Time now 2017-Oct-18 12:58 UTC.
Position N 01°16' E 103°49'.

Type: Ship. MMSI: 308272000.

Date/timePositionNaut miles runAvg speedWind from/ knotsBaromVisibWave heightAir tempDewpointWater temp
2017-Oct-18 11:20N 01°16' E 103°49'0 0.0
2017-Oct-18 10:02N 01°16' E 103°49'0 0.0
2017-Oct-18 09:48N 01°16' E 103°49'0 0.0
2017-Oct-18 05:23N 01°16' E 103°49'0 1.2
2017-Oct-18 04:59N 01°16' E 103°49'3 6.7
2017-Oct-18 04:30N 01°13' E 103°49'5 9.2
2017-Oct-18 03:59N 01°09' E 103°46'510.6
2017-Oct-18 03:30N 01°05' E 103°42'611.0
2017-Oct-18 02:59N 01°04' E 103°37'713.8
2017-Oct-18 02:31N 01°08' E 103°31'14316.8
2017-Oct-17 18:00N 02°24' E 101°30'181 7.8 220 / 101011.0 5.4 29.027.731.0
2017-Oct-16 18:42N 05°05' E 100°07'416.2
2017-Oct-16 18:28N 05°09' E 100°06'1123.3
2017-Oct-16 18:00N 05°18' E 100°00'548.5 090 / 41010.0 5.4 28.026.731.0
2017-Oct-16 17:54N 05°18' E 100°05'716.5
2017-Oct-16 17:30N 05°25' E 100°04'916.0
2017-Oct-16 16:55N 05°33' E 100°09'913.4
2017-Oct-16 16:15N 05°32' E 100°17'812.7
2017-Oct-16 15:39N 05°25' E 100°21'0 1.8
2017-Oct-16 15:30N 05°25' E 100°21'0 0.1
2017-Oct-16 15:00N 05°25' E 100°21'0 0.0
2017-Oct-16 14:29N 05°25' E 100°21'0 0.0
2017-Oct-16 13:29N 05°25' E 100°21'0 0.0
2017-Oct-16 13:00N 05°25' E 100°21'0 0.0
2017-Oct-16 12:29N 05°25' E 100°21'0 0.0
2017-Oct-16 11:59N 05°25' E 100°21'0 0.0
2017-Oct-16 10:53N 05°25' E 100°21'0 0.0
2017-Oct-16 10:30N 05°25' E 100°21'0 0.0
2017-Oct-16 09:59N 05°25' E 100°21'0 0.0
2017-Oct-16 09:24N 05°25' E 100°21'0 0.0
2017-Oct-16 08:42N 05°25' E 100°21'0 0.0
2017-Oct-16 08:30N 05°25' E 100°21'0 0.0
2017-Oct-16 07:53N 05°25' E 100°21'0 0.4
2017-Oct-16 07:30N 05°25' E 100°21'5 9.0
2017-Oct-16 07:00N 05°30' E 100°20'32414.2
2017-Oct-15 08:07N 01°12' E 103°36'314.6
2017-Oct-15 07:54N 01°12' E 103°40'512.3
2017-Oct-15 07:30N 01°15' E 103°44'5 8.8
2017-Oct-15 06:58N 01°16' E 103°48'1 1.4
2017-Oct-15 06:26N 01°16' E 103°49'0 0.0
2017-Oct-15 04:47N 01°16' E 103°49'0 0.0
2017-Oct-15 04:22N 01°16' E 103°49'0 0.0
2017-Oct-15 03:52N 01°16' E 103°49'0 0.0
2017-Oct-15 02:35N 01°16' E 103°49'0 0.0
2017-Oct-15 02:10N 01°16' E 103°49'0 0.0
2017-Oct-15 01:59N 01°16' E 103°49'0 0.0
2017-Oct-15 01:30N 01°16' E 103°49'1 2.3
2017-Oct-15 01:00N 01°15' E 103°48'4 7.4
2017-Oct-15 00:29N 01°12' E 103°50'510.5
2017-Oct-15 00:00N 01°09' E 103°46'611.3
2017-Oct-14 23:30N 01°04' E 103°42'4 8.1
2017-Oct-14 23:00N 01°03' E 103°38'5 9.0
2017-Oct-14 22:30N 01°05' E 103°34'4 8.4
2017-Oct-14 21:58N 01°07' E 103°31'5 8.1
2017-Oct-14 21:25N 01°10' E 103°27'30 8.9
2017-Oct-14 18:00N 01°24' E 103°00'13 0.6 350 / 101010.0 5.4 28.026.731.0
2017-Oct-13 18:00N 01°18' E 103°12'22 7.5 220 / 171010.0 5.4 27.025.731.0
2017-Oct-13 15:01N 01°12' E 103°33'2 9.2
2017-Oct-13 14:50N 01°11' E 103°35'3 8.4
2017-Oct-13 14:30N 01°11' E 103°38'4 8.0
2017-Oct-13 14:00N 01°10' E 103°42'4 7.2
2017-Oct-13 13:29N 01°09' E 103°45'3 5.9
2017-Oct-13 13:00N 01°10' E 103°48'3 6.0
2017-Oct-13 12:30N 01°13' E 103°48'3 5.7
2017-Oct-13 12:00N 01°16' E 103°49'4 7.3
2017-Oct-13 11:29N 01°12' E 103°49'4 3.8
2017-Oct-13 10:31N 01°16' E 103°49'0 0.0
2017-Oct-13 10:19N 01°16' E 103°49'0 0.0
2017-Oct-13 09:58N 01°16' E 103°49'0 0.0
2017-Oct-13 09:25N 01°16' E 103°49'0 0.0
2017-Oct-13 08:41N 01°16' E 103°49'0 0.0
2017-Oct-13 08:25N 01°16' E 103°49'0 0.0
2017-Oct-13 07:55N 01°16' E 103°49'0 0.0
2017-Oct-13 07:19N 01°16' E 103°49'0 0.0
2017-Oct-13 06:43N 01°16' E 103°49'0 0.0
2017-Oct-13 05:10N 01°16' E 103°49'0 0.0
2017-Oct-13 04:58N 01°16' E 103°49'0 0.0
2017-Oct-13 04:22N 01°16' E 103°49'0 0.0
2017-Oct-13 03:55N 01°16' E 103°49'0 0.0
2017-Oct-13 03:28N 01°16' E 103°49'1 1.2
2017-Oct-13 03:00N 01°16' E 103°49'4 7.1
2017-Oct-13 02:30N 01°12' E 103°49'510.7
2017-Oct-13 02:00N 01°08' E 103°46'510.6
2017-Oct-13 01:30N 01°04' E 103°42'3 6.7
2017-Oct-13 01:00N 01°03' E 103°39'4 8.5
2017-Oct-13 00:30N 01°05' E 103°35'4 8.6
2017-Oct-12 23:59N 01°07' E 103°31'5 8.7
2017-Oct-12 23:25N 01°09' E 103°27'4 8.6
2017-Oct-12 22:59N 01°11' E 103°24'44 8.7
2017-Oct-12 18:00N 01°36' E 102°48'53 2.2 130 / 171010.0 5.4 27.025.730.0
2017-Oct-11 17:21N 01°11' E 103°35'515.6
2017-Oct-11 17:01N 01°10' E 103°41'185 9.2
2017-Oct-10 21:00N 02°42' E 101°00'190 7.0 100 / 121008.0 5.4 28.026.731.0
2017-Oct-09 18:00N 05°42' E 100°00'22 8.7 270 / 141008.0 5.4 28.026.731.0
2017-Oct-09 15:30N 05°31' E 100°19'6 0.9
2017-Oct-09 08:18N 05°25' E 100°21'0 0.0
2017-Oct-09 07:54N 05°25' E 100°21'0 0.2
2017-Oct-09 07:27N 05°25' E 100°21'3 7.3
2017-Oct-09 07:00N 05°28' E 100°20'18214.0
2017-Oct-08 18:00N 02°36' E 101°18'   360 / 121010.010.8 28.026.731.0

Dump ship's entire track history